CheckWX is a tool to help pilots better visualize weather data.  It is not intended as a substitute for an official pre-flight weather briefing.

15:52:17 UTC

KSYM TAF
Morehead-Rowan County Clyde A Thomas Regional Airport
Morehead, Kentucky, USA
KSYM 171120Z 1712/1812 29004KT P6SM FEW045 FM171500 31008G16KT P6SM FEW050 FM180000 32003KT P6SM FEW045 AMD NOT SKED

Oct-17@
12:00 UTC

Oct-17 @ 12:00 UTC

Oct-17@
15:00 UTC

Oct-17 @ 15:00 UTC

KSYM 171120Z 1712/1812 29004KT P6SM FEW045

Expired

Wind
  • 290° at 4 KTS
Cloud Levels
  • Few at 4,500' AGL

Oct-17@
15:00 UTC

Oct-17 @ 15:00 UTC

Oct-18@
00:00 UTC

Oct-18 @ 00:00 UTC

FM171500 31008G16KT P6SM FEW050

From

From Standard forecast or significant change

Wind
  • 310° at 8 KTS
  • {Gusting to 16 KTS
Cloud Levels
  • Few at 5,000' AGL

Oct-18@
00:00 UTC

Oct-18 @ 00:00 UTC

Oct-18@
12:00 UTC

Oct-18 @ 12:00 UTC

FM180000 32003KT P6SM FEW045 AMD NOT SKED

From

From Standard forecast or significant change

Wind
  • 320° at 3 KTS
Cloud Levels
  • Few at 4,500' AGL